createdAt,value
2023-06-30T00:00:43.567Z,47.62
2023-06-30T00:02:15.251Z,47.66
2023-06-30T00:03:46.877Z,48.11
2023-06-30T00:05:19.666Z,47.80
2023-06-30T00:06:51.458Z,47.83
2023-06-30T00:08:23.134Z,47.94
2023-06-30T00:09:54.752Z,48.37
2023-06-30T00:11:26.347Z,48.38
2023-06-30T00:12:57.986Z,48.37
2023-06-30T00:14:29.894Z,47.97
2023-06-30T00:16:01.448Z,48.33
2023-06-30T00:17:33.070Z,47.95
2023-06-30T00:19:06.317Z,48.43
2023-06-30T00:20:38.017Z,48.42
2023-06-30T00:22:10.148Z,48.19
2023-06-30T00:23:41.751Z,48.47
2023-06-30T00:25:15.252Z,48.01
2023-06-30T00:26:46.987Z,48.24
2023-06-30T00:28:18.758Z,48.29
2023-06-30T00:29:50.262Z,48.34
2023-06-30T00:31:22.366Z,48.94
2023-06-30T00:32:54.023Z,48.94
2023-06-30T00:34:25.628Z,48.41
2023-06-30T00:35:57.167Z,48.41
2023-06-30T00:37:29.170Z,48.38
2023-06-30T00:39:00.702Z,48.61
2023-06-30T00:40:32.213Z,48.79
2023-06-30T00:42:03.916Z,48.55
2023-06-30T00:43:35.488Z,48.58
2023-06-30T00:45:07.291Z,49.03
2023-06-30T00:46:38.862Z,49.09
2023-06-30T00:48:10.503Z,48.85
2023-06-30T00:49:42.125Z,48.57
2023-06-30T00:51:14.362Z,49.15
2023-06-30T00:52:47.936Z,49.13
2023-06-30T00:54:19.532Z,49.40
2023-06-30T00:55:51.409Z,48.87
2023-06-30T00:57:22.967Z,49.49
2023-06-30T00:58:54.783Z,49.15
2023-06-30T01:00:26.271Z,49.23
2023-06-30T01:01:58.865Z,49.38
2023-06-30T01:03:49.693Z,49.47
2023-06-30T01:05:26.656Z,49.32
2023-06-30T01:07:11.790Z,49.53
2023-06-30T01:08:44.459Z,49.37
2023-06-30T01:10:16.789Z,49.72
2023-06-30T01:11:48.366Z,49.16
2023-06-30T01:13:19.958Z,49.60
2023-06-30T01:14:51.480Z,49.62
2023-06-30T01:16:23.193Z,49.62
2023-06-30T01:17:55.380Z,49.62
2023-06-30T01:19:27.041Z,49.65
2023-06-30T01:21:01.036Z,49.77
2023-06-30T01:22:35.174Z,49.53
2023-06-30T01:24:07.965Z,50.04
2023-06-30T01:25:39.794Z,50.09
2023-06-30T01:27:13.764Z,50.04
2023-06-30T01:28:45.846Z,49.76
2023-06-30T01:30:17.425Z,49.76
2023-06-30T01:31:49.033Z,49.66
2023-06-30T01:33:20.616Z,49.58
2023-06-30T01:34:52.442Z,49.69
2023-06-30T01:36:23.930Z,49.57
2023-06-30T01:37:55.836Z,49.72
2023-06-30T01:39:27.338Z,49.88
2023-06-30T01:40:59.077Z,49.97
2023-06-30T01:42:30.687Z,50.06
2023-06-30T01:44:02.416Z,50.14
2023-06-30T01:45:33.956Z,50.20
2023-06-30T01:47:06.531Z,50.13
2023-06-30T01:48:38.475Z,50.01
2023-06-30T01:50:10.438Z,50.16
2023-06-30T01:51:42.022Z,50.06
2023-06-30T01:53:13.580Z,50.09
2023-06-30T01:54:45.088Z,50.12
2023-06-30T01:56:16.683Z,49.94
2023-06-30T01:57:48.168Z,50.39
2023-06-30T01:59:19.742Z,50.31
2023-06-30T02:00:51.389Z,50.21
2023-06-30T02:02:22.999Z,50.31
2023-06-30T02:03:55.299Z,50.41
2023-06-30T02:05:26.994Z,50.37
2023-06-30T02:06:58.526Z,50.53
2023-06-30T02:08:30.241Z,50.28
2023-06-30T02:10:02.247Z,50.54
2023-06-30T02:11:34.041Z,50.15
2023-06-30T02:13:05.624Z,50.76
2023-06-30T02:14:37.145Z,50.68
2023-06-30T02:16:08.990Z,50.73
2023-06-30T02:17:41.765Z,50.49
2023-06-30T02:19:13.439Z,50.88
2023-06-30T02:20:44.950Z,51.02
2023-06-30T02:22:16.618Z,50.67
2023-06-30T02:23:48.158Z,51.07
2023-06-30T02:25:19.658Z,50.70
2023-06-30T02:26:51.253Z,51.18
2023-06-30T02:28:22.813Z,51.31
2023-06-30T02:29:54.467Z,51.25
2023-06-30T02:31:26.551Z,51.12
2023-06-30T02:32:58.946Z,51.51
2023-06-30T02:34:30.619Z,51.52
2023-06-30T02:36:04.278Z,51.55
2023-06-30T02:37:36.110Z,51.47
2023-06-30T02:39:07.672Z,51.45
2023-06-30T02:40:39.701Z,51.63
2023-06-30T02:42:11.188Z,51.45
2023-06-30T02:43:44.162Z,51.61
2023-06-30T02:45:16.148Z,51.48
2023-06-30T02:46:48.035Z,51.67
2023-06-30T02:48:19.590Z,51.73
2023-06-30T02:49:51.119Z,51.55
2023-06-30T02:51:23.057Z,51.73
2023-06-30T02:52:54.842Z,51.76
2023-06-30T02:54:26.487Z,51.64
2023-06-30T02:55:58.904Z,51.58
2023-06-30T02:57:30.460Z,51.96
2023-06-30T02:59:02.009Z,51.70
2023-06-30T03:00:34.962Z,51.57
2023-06-30T03:02:06.609Z,51.86
2023-06-30T03:03:39.440Z,51.53
2023-06-30T03:05:11.383Z,51.63
2023-06-30T03:06:43.078Z,51.73
2023-06-30T03:08:14.618Z,51.59
2023-06-30T03:09:46.185Z,51.74
2023-06-30T03:11:17.760Z,51.74
2023-06-30T03:12:49.771Z,51.90
2023-06-30T03:14:21.361Z,52.10
2023-06-30T03:15:53.234Z,52.23
2023-06-30T03:17:24.834Z,52.02
2023-06-30T03:18:57.246Z,52.27
2023-06-30T03:20:28.970Z,52.09
2023-06-30T03:22:00.800Z,52.20
2023-06-30T03:23:32.333Z,52.03
2023-06-30T03:25:05.272Z,51.67
2023-06-30T03:26:37.091Z,51.68
2023-06-30T03:28:08.697Z,51.76
2023-06-30T03:29:40.182Z,51.73
2023-06-30T03:31:11.731Z,51.88
2023-06-30T03:32:43.543Z,51.94
2023-06-30T03:34:15.145Z,52.06
2023-06-30T03:35:48.199Z,52.20
2023-06-30T03:37:19.843Z,52.07
2023-06-30T03:38:51.391Z,52.34
2023-06-30T03:40:22.941Z,52.34
2023-06-30T03:41:54.456Z,52.45
2023-06-30T03:43:25.994Z,52.55
2023-06-30T03:44:57.576Z,52.55
2023-06-30T03:46:29.299Z,52.62
2023-06-30T03:48:00.893Z,52.73
2023-06-30T03:49:32.581Z,52.85
2023-06-30T03:51:04.064Z,52.82
2023-06-30T03:52:35.804Z,52.76
2023-06-30T03:54:08.281Z,52.53
2023-06-30T03:55:41.562Z,52.85
2023-06-30T03:57:13.142Z,52.70
2023-06-30T03:58:45.136Z,52.59
2023-06-30T04:00:17.152Z,52.28
2023-06-30T04:01:48.915Z,52.80
2023-06-30T04:03:21.020Z,52.57
2023-06-30T04:04:52.651Z,52.80
2023-06-30T04:06:24.313Z,52.99
2023-06-30T04:07:56.018Z,53.00
2023-06-30T04:09:27.765Z,52.93
2023-06-30T04:10:59.312Z,52.50
2023-06-30T04:12:31.352Z,52.60
2023-06-30T04:14:03.202Z,52.97
2023-06-30T04:15:34.708Z,52.63
2023-06-30T04:17:06.791Z,52.88
2023-06-30T04:18:39.010Z,52.55
2023-06-30T04:20:11.106Z,52.74
2023-06-30T04:21:43.150Z,52.96
2023-06-30T04:23:14.736Z,52.91
2023-06-30T04:24:46.310Z,53.23
2023-06-30T04:26:18.349Z,53.53
2023-06-30T04:27:49.901Z,53.31
2023-06-30T04:29:21.436Z,53.23
2023-06-30T04:30:52.957Z,53.45
2023-06-30T04:32:24.497Z,53.00
2023-06-30T04:33:56.072Z,52.99
2023-06-30T04:35:27.637Z,53.08
2023-06-30T04:36:59.204Z,52.67
2023-06-30T04:38:31.148Z,52.57
2023-06-30T04:40:05.901Z,52.40
2023-06-30T04:41:38.790Z,52.44
2023-06-30T04:43:13.788Z,52.34
2023-06-30T04:44:45.576Z,52.68
2023-06-30T04:46:17.349Z,52.49
2023-06-30T04:47:48.937Z,52.44
2023-06-30T04:49:20.472Z,52.83
2023-06-30T04:50:52.014Z,52.70
2023-06-30T04:52:23.535Z,53.05
2023-06-30T04:53:55.249Z,52.94
2023-06-30T04:55:27.134Z,53.01
2023-06-30T04:56:58.645Z,52.68
2023-06-30T04:58:30.214Z,52.53
2023-06-30T05:00:01.948Z,52.32
2023-06-30T05:01:34.319Z,52.48
2023-06-30T05:03:06.016Z,52.37
2023-06-30T05:04:37.723Z,52.45
2023-06-30T05:06:09.446Z,52.28
2023-06-30T05:07:40.984Z,52.25
2023-06-30T05:09:12.578Z,52.25
2023-06-30T05:10:44.174Z,52.42
2023-06-30T05:12:16.918Z,52.10
2023-06-30T05:13:48.631Z,52.16
2023-06-30T05:15:20.250Z,52.01
2023-06-30T05:16:52.434Z,51.98
2023-06-30T05:18:24.101Z,52.12
2023-06-30T05:19:55.801Z,51.87
2023-06-30T05:21:27.419Z,52.01
2023-06-30T05:22:58.995Z,52.26
2023-06-30T05:24:30.547Z,52.33
2023-06-30T05:26:02.168Z,52.59
2023-06-30T05:27:33.695Z,52.72
2023-06-30T05:29:07.314Z,52.81
2023-06-30T05:30:40.451Z,52.71
2023-06-30T05:32:12.054Z,52.89
2023-06-30T05:33:43.620Z,52.96
2023-06-30T05:35:15.240Z,53.07
2023-06-30T05:36:46.828Z,53.06
2023-06-30T05:38:18.405Z,52.87
2023-06-30T05:39:50.232Z,52.86
2023-06-30T05:41:21.802Z,52.97
2023-06-30T05:42:53.450Z,52.89
2023-06-30T05:44:25.656Z,52.91
2023-06-30T05:45:57.341Z,52.69
2023-06-30T05:47:28.901Z,52.20
2023-06-30T05:49:03.568Z,51.90
2023-06-30T05:50:35.110Z,51.77
2023-06-30T05:52:08.421Z,51.65
2023-06-30T05:53:40.542Z,51.76
2023-06-30T05:55:13.093Z,51.78
2023-06-30T05:56:44.870Z,52.23
2023-06-30T05:58:16.382Z,51.92
2023-06-30T05:59:48.057Z,52.00
2023-06-30T06:01:19.889Z,51.77
2023-06-30T06:02:51.600Z,51.60
2023-06-30T06:04:23.445Z,51.50
2023-06-30T06:05:55.274Z,51.26
2023-06-30T06:07:27.152Z,51.13
2023-06-30T06:08:58.882Z,50.85
2023-06-30T06:10:31.035Z,50.80
2023-06-30T06:12:03.546Z,50.75
2023-06-30T06:13:36.128Z,50.90
2023-06-30T06:15:10.644Z,50.81
2023-06-30T06:16:45.995Z,50.74
2023-06-30T06:18:17.637Z,51.07
2023-06-30T06:19:49.602Z,51.21
2023-06-30T06:21:21.388Z,50.89
2023-06-30T06:22:53.041Z,50.79
2023-06-30T06:24:24.695Z,50.66
2023-06-30T06:25:56.325Z,50.73
2023-06-30T06:27:30.130Z,50.70
2023-06-30T06:29:01.765Z,50.75
2023-06-30T06:30:33.921Z,50.64
2023-06-30T06:32:05.741Z,50.40
2023-06-30T06:33:37.363Z,50.36
2023-06-30T06:35:09.094Z,50.30
2023-06-30T06:36:40.684Z,50.21
2023-06-30T06:38:12.265Z,50.21
2023-06-30T06:39:45.590Z,50.08
2023-06-30T06:41:17.158Z,50.04
2023-06-30T06:42:48.743Z,49.77
2023-06-30T06:44:20.450Z,49.81
2023-06-30T06:45:52.148Z,49.63
2023-06-30T06:47:42.069Z,49.38
2023-06-30T06:49:16.306Z,49.32
2023-06-30T06:50:48.508Z,49.19
2023-06-30T06:52:20.138Z,49.13
2023-06-30T06:53:53.179Z,48.86
2023-06-30T06:55:24.963Z,48.56
2023-06-30T06:56:56.731Z,48.26
2023-06-30T06:58:32.011Z,48.20
2023-06-30T07:00:05.737Z,48.32
2023-06-30T07:01:37.938Z,48.25
2023-06-30T07:03:09.686Z,47.84
2023-06-30T07:04:41.230Z,47.70
2023-06-30T07:06:13.117Z,47.93
2023-06-30T07:07:44.844Z,47.74
2023-06-30T07:09:16.669Z,48.02
2023-06-30T07:10:48.562Z,47.79
2023-06-30T07:12:20.117Z,47.55
2023-06-30T07:13:52.282Z,47.43
2023-06-30T07:15:24.527Z,47.54
2023-06-30T07:16:56.555Z,47.51
2023-06-30T07:18:28.298Z,47.26
2023-06-30T07:20:00.344Z,46.74
2023-06-30T07:21:32.980Z,46.55
2023-06-30T07:23:04.596Z,46.42
2023-06-30T07:24:43.305Z,46.27
2023-06-30T07:26:15.620Z,46.60
2023-06-30T07:27:50.654Z,46.83
2023-06-30T07:29:22.689Z,46.62
2023-06-30T07:30:54.402Z,46.47
2023-06-30T07:32:26.248Z,46.40
2023-06-30T07:33:57.829Z,46.12
2023-06-30T07:35:29.778Z,46.15
2023-06-30T07:37:01.698Z,46.27
2023-06-30T07:38:33.815Z,46.06
2023-06-30T07:41:43.758Z,45.34
2023-06-30T07:43:15.331Z,45.56
2023-06-30T07:44:47.979Z,45.35
2023-06-30T07:46:19.715Z,45.46
2023-06-30T07:47:51.447Z,45.09
2023-06-30T07:49:23.363Z,45.37
2023-06-30T07:51:07.813Z,45.23
2023-06-30T07:52:43.987Z,45.14
2023-06-30T07:54:16.507Z,44.83
2023-06-30T07:55:48.617Z,44.75
2023-06-30T07:57:20.340Z,44.86
2023-06-30T07:58:52.321Z,44.31
2023-06-30T08:00:30.138Z,44.64
2023-06-30T08:02:01.876Z,44.59
2023-06-30T08:03:34.676Z,44.33
2023-06-30T08:05:06.984Z,44.26
2023-06-30T08:07:47.990Z,44.32
2023-06-30T08:09:20.555Z,44.24
2023-06-30T08:10:52.203Z,44.00
2023-06-30T08:16:29.430Z,43.47
2023-06-30T08:18:01.301Z,43.37
2023-06-30T08:19:48.153Z,43.64
2023-06-30T08:21:20.969Z,43.40
2023-06-30T08:22:52.712Z,43.52
2023-06-30T08:24:24.862Z,43.26
2023-06-30T08:25:56.749Z,42.95
2023-06-30T08:27:28.534Z,43.06
2023-06-30T08:29:00.164Z,43.22
2023-06-30T08:30:32.136Z,43.09
2023-06-30T08:32:04.109Z,43.10
2023-06-30T08:33:40.384Z,43.01
2023-06-30T08:35:13.097Z,42.62
2023-06-30T08:36:45.052Z,42.49
2023-06-30T08:38:17.214Z,42.27
2023-06-30T08:39:48.994Z,42.32
2023-06-30T08:41:21.101Z,42.06
2023-06-30T08:42:53.168Z,41.92
2023-06-30T08:44:25.205Z,41.84
2023-06-30T08:45:56.975Z,41.94
2023-06-30T08:47:29.813Z,41.76
2023-06-30T08:49:01.544Z,41.77
2023-06-30T08:50:34.315Z,41.67
2023-06-30T08:52:06.642Z,41.52
2023-06-30T08:53:38.699Z,41.49
2023-06-30T08:55:11.288Z,41.17
2023-06-30T08:56:43.191Z,40.98
2023-06-30T08:58:25.705Z,40.95
2023-06-30T08:59:59.113Z,40.95
2023-06-30T09:01:30.837Z,40.66
2023-06-30T09:03:06.011Z,40.53
2023-06-30T09:04:37.967Z,40.52
2023-06-30T09:06:10.038Z,40.46
2023-06-30T09:07:51.391Z,40.27
2023-06-30T09:09:27.254Z,40.27
2023-06-30T09:10:59.670Z,39.83
2023-06-30T09:12:31.897Z,39.88
2023-06-30T09:14:05.451Z,40.19
2023-06-30T09:15:37.476Z,40.34
2023-06-30T09:17:09.380Z,40.29
2023-06-30T09:18:41.025Z,40.00
2023-06-30T09:20:13.190Z,39.97
2023-06-30T09:21:46.106Z,39.64
2023-06-30T09:23:18.162Z,39.49
2023-06-30T09:24:50.048Z,39.31
2023-06-30T09:26:22.163Z,39.20
2023-06-30T09:27:56.488Z,39.02
2023-06-30T09:29:28.293Z,38.84
2023-06-30T09:31:00.199Z,38.93
2023-06-30T09:32:32.896Z,38.97
2023-06-30T09:34:11.701Z,38.93
2023-06-30T09:35:44.188Z,38.84
2023-06-30T09:37:16.520Z,38.70
2023-06-30T09:38:48.176Z,38.71
2023-06-30T09:40:19.837Z,38.74
2023-06-30T09:41:52.306Z,38.67
2023-06-30T09:43:25.229Z,38.79
2023-06-30T09:44:57.038Z,38.72
2023-06-30T09:46:29.797Z,38.58
2023-06-30T09:48:01.603Z,38.11
2023-06-30T09:49:36.929Z,38.18
2023-06-30T09:51:08.994Z,38.03
2023-06-30T09:52:40.692Z,38.26
2023-06-30T09:54:12.756Z,38.15
2023-06-30T09:55:53.526Z,37.91
2023-06-30T09:57:28.760Z,37.76
2023-06-30T09:59:02.756Z,37.39
2023-06-30T10:00:36.087Z,37.29
2023-06-30T10:02:09.374Z,37.42
2023-06-30T10:03:49.656Z,37.55
2023-06-30T10:05:21.850Z,37.60
2023-06-30T10:06:54.037Z,37.31
2023-06-30T10:08:26.038Z,37.62
2023-06-30T10:09:58.121Z,37.48
2023-06-30T10:11:29.925Z,37.07
2023-06-30T10:13:01.827Z,36.87
2023-06-30T10:14:34.151Z,37.05
2023-06-30T10:16:06.627Z,36.94
2023-06-30T10:17:39.059Z,36.59
2023-06-30T10:19:11.552Z,37.11
2023-06-30T10:20:49.140Z,36.38
2023-06-30T10:22:21.759Z,36.43
2023-06-30T10:23:53.529Z,36.59
2023-06-30T10:25:26.222Z,35.91
2023-06-30T10:26:59.019Z,36.13
2023-06-30T10:28:30.955Z,35.75
2023-06-30T10:30:02.745Z,35.74
2023-06-30T10:31:34.849Z,35.61
2023-06-30T10:33:06.913Z,35.63
2023-06-30T10:34:39.203Z,35.75
2023-06-30T10:36:11.340Z,35.95
2023-06-30T10:37:43.378Z,35.75
2023-06-30T10:39:15.534Z,35.75
2023-06-30T10:40:48.069Z,35.50
2023-06-30T10:42:21.671Z,35.98
2023-06-30T10:44:12.245Z,35.46
2023-06-30T10:46:02.517Z,35.20
2023-06-30T10:47:38.361Z,35.02
2023-06-30T10:49:17.987Z,35.08
2023-06-30T10:50:50.143Z,34.81
2023-06-30T10:52:28.913Z,34.51
2023-06-30T10:54:00.610Z,34.54
2023-06-30T10:55:34.465Z,35.10
2023-06-30T10:57:07.223Z,35.07
2023-06-30T10:58:43.405Z,34.91
2023-06-30T11:00:16.279Z,34.80
2023-06-30T11:02:07.024Z,34.46
2023-06-30T11:03:58.109Z,34.48
2023-06-30T11:05:34.270Z,34.18
2023-06-30T11:07:08.612Z,34.10
2023-06-30T11:08:40.408Z,33.83
2023-06-30T11:10:12.434Z,33.90
2023-06-30T11:11:53.070Z,34.32
2023-06-30T11:13:36.738Z,33.87
2023-06-30T11:15:08.597Z,33.91
2023-06-30T11:16:59.500Z,33.52
2023-06-30T11:18:38.147Z,33.91
2023-06-30T11:20:14.205Z,33.66
2023-06-30T11:21:48.804Z,33.43
2023-06-30T11:23:20.876Z,33.15
2023-06-30T11:24:53.283Z,33.20
2023-06-30T11:26:25.528Z,32.77
2023-06-30T11:27:57.939Z,32.82
2023-06-30T11:29:29.949Z,32.67
2023-06-30T11:31:01.825Z,32.82
2023-06-30T11:32:34.848Z,32.69
2023-06-30T11:34:06.680Z,32.48
2023-06-30T11:35:38.868Z,32.67
2023-06-30T11:37:11.050Z,32.97
2023-06-30T11:38:46.837Z,32.72
2023-06-30T11:40:19.475Z,32.46
2023-06-30T11:41:51.435Z,32.14
2023-06-30T11:43:23.851Z,32.45
2023-06-30T11:44:57.758Z,32.50
2023-06-30T11:46:37.623Z,32.41
2023-06-30T11:48:09.394Z,32.36
2023-06-30T11:49:41.467Z,31.91
2023-06-30T11:51:13.474Z,31.69
2023-06-30T11:52:46.251Z,31.41
2023-06-30T11:54:17.817Z,31.60
2023-06-30T11:55:50.798Z,31.36
2023-06-30T11:57:22.471Z,31.32
2023-06-30T11:58:54.680Z,31.09
2023-06-30T12:00:26.489Z,31.03
2023-06-30T12:01:58.286Z,31.08
2023-06-30T12:03:30.130Z,31.36
2023-06-30T12:05:02.833Z,30.97
2023-06-30T12:06:37.477Z,31.15
2023-06-30T12:08:09.139Z,30.98
2023-06-30T12:09:42.206Z,31.21
2023-06-30T12:11:14.615Z,31.07
2023-06-30T12:12:59.389Z,30.97
2023-06-30T12:14:31.822Z,31.12
2023-06-30T12:16:04.901Z,30.92
2023-06-30T12:17:37.845Z,30.86
2023-06-30T12:19:12.201Z,30.84
2023-06-30T12:20:45.173Z,30.86
2023-06-30T12:22:24.393Z,31.02
2023-06-30T12:23:58.396Z,31.22
2023-06-30T12:25:36.804Z,30.91
2023-06-30T12:27:11.453Z,31.06
2023-06-30T12:28:43.100Z,31.02
2023-06-30T12:30:15.918Z,30.86
2023-06-30T12:31:48.897Z,30.85
2023-06-30T12:33:20.748Z,30.78
2023-06-30T12:34:58.023Z,30.81
2023-06-30T12:36:30.198Z,30.84
2023-06-30T12:38:01.906Z,30.88
2023-06-30T12:39:34.088Z,30.90
2023-06-30T12:41:05.836Z,31.04
2023-06-30T12:42:37.444Z,30.79
2023-06-30T12:44:09.362Z,30.83
2023-06-30T12:45:41.273Z,30.84
2023-06-30T12:47:13.197Z,30.86
2023-06-30T12:48:45.529Z,30.59
2023-06-30T12:50:18.968Z,30.44
2023-06-30T12:51:50.752Z,30.35
2023-06-30T12:53:22.837Z,30.31
2023-06-30T12:54:54.611Z,30.40
2023-06-30T12:56:26.958Z,30.25
2023-06-30T12:57:58.661Z,30.02
2023-06-30T12:59:30.482Z,30.13
2023-06-30T13:01:04.891Z,30.00
2023-06-30T13:02:37.223Z,30.05
2023-06-30T13:04:09.337Z,30.01
2023-06-30T13:05:41.836Z,30.11
2023-06-30T13:07:14.158Z,30.20
2023-06-30T13:08:46.622Z,30.04
2023-06-30T13:10:18.727Z,30.11
2023-06-30T13:11:50.992Z,30.01
2023-06-30T13:13:23.264Z,30.18
2023-06-30T13:14:55.365Z,29.99
2023-06-30T13:16:27.087Z,30.24
2023-06-30T13:17:58.941Z,30.11
2023-06-30T13:19:31.022Z,30.17
2023-06-30T13:21:02.847Z,30.04
2023-06-30T13:22:36.259Z,30.03
2023-06-30T13:24:09.939Z,29.96
2023-06-30T13:25:41.870Z,29.93
2023-06-30T13:27:14.076Z,29.91
2023-06-30T13:28:45.744Z,29.82
2023-06-30T13:30:17.460Z,29.73
2023-06-30T13:31:50.223Z,29.62
2023-06-30T13:33:22.970Z,29.66
2023-06-30T13:34:56.085Z,29.41
2023-06-30T13:36:29.323Z,29.26
2023-06-30T13:38:01.015Z,29.34
2023-06-30T13:39:32.730Z,29.28
2023-06-30T13:41:04.666Z,29.30
2023-06-30T13:42:36.350Z,29.23
2023-06-30T13:44:08.306Z,29.19
2023-06-30T13:45:40.442Z,29.18
2023-06-30T13:47:12.246Z,29.12
2023-06-30T13:48:43.847Z,29.16
2023-06-30T13:50:16.768Z,29.27
2023-06-30T13:51:48.714Z,29.38
2023-06-30T13:53:20.992Z,29.41
2023-06-30T13:54:53.239Z,29.44
2023-06-30T13:56:25.029Z,29.33
2023-06-30T13:57:56.759Z,29.43
2023-06-30T13:59:28.358Z,29.44
2023-06-30T14:00:59.957Z,29.47
2023-06-30T14:02:31.693Z,29.33
2023-06-30T14:04:04.241Z,29.30
2023-06-30T14:05:36.299Z,29.38
2023-06-30T14:07:08.197Z,29.26
2023-06-30T14:08:39.990Z,29.13
2023-06-30T14:10:13.356Z,29.21
2023-06-30T14:11:45.099Z,29.14
2023-06-30T14:13:16.687Z,28.86
2023-06-30T14:14:48.797Z,28.58
2023-06-30T14:16:21.451Z,28.86
2023-06-30T14:17:53.426Z,28.72
2023-06-30T14:19:25.197Z,28.54
2023-06-30T14:20:57.067Z,28.46
2023-06-30T14:22:28.931Z,28.65
2023-06-30T14:24:01.153Z,28.59
2023-06-30T14:25:33.409Z,28.41
2023-06-30T14:27:05.262Z,28.51
2023-06-30T14:28:36.992Z,28.68
2023-06-30T14:30:09.210Z,28.48
2023-06-30T14:31:40.932Z,28.35
2023-06-30T14:33:12.818Z,28.27
2023-06-30T14:34:45.107Z,28.25
2023-06-30T14:36:16.732Z,28.12
2023-06-30T14:37:48.957Z,28.20
2023-06-30T14:39:21.019Z,28.03
2023-06-30T14:40:53.539Z,27.90
2023-06-30T14:42:32.101Z,27.92
2023-06-30T14:44:04.668Z,27.91
2023-06-30T14:45:36.634Z,27.97
2023-06-30T14:47:09.910Z,27.89
2023-06-30T14:48:42.417Z,27.74
2023-06-30T14:50:14.113Z,27.97
2023-06-30T14:51:45.690Z,28.02
2023-06-30T14:53:17.290Z,27.95
2023-06-30T14:54:48.833Z,27.92
2023-06-30T14:56:20.693Z,28.06
2023-06-30T14:57:52.276Z,28.05
2023-06-30T14:59:23.861Z,28.09
2023-06-30T15:00:56.005Z,28.10
2023-06-30T15:02:27.725Z,27.94
2023-06-30T15:03:59.474Z,27.75
2023-06-30T15:05:32.326Z,27.55
2023-06-30T15:07:05.574Z,27.82
2023-06-30T15:08:37.169Z,27.73
2023-06-30T15:10:08.969Z,28.06
2023-06-30T15:11:40.668Z,27.76
2023-06-30T15:13:12.299Z,28.18
2023-06-30T15:14:43.856Z,28.11
2023-06-30T15:16:15.814Z,27.94
2023-06-30T15:17:47.410Z,27.68
2023-06-30T15:19:18.998Z,27.85
2023-06-30T15:20:50.650Z,27.58
2023-06-30T15:22:22.244Z,27.67
2023-06-30T15:23:53.850Z,27.86
2023-06-30T15:25:28.942Z,27.90
2023-06-30T15:27:00.698Z,27.81
2023-06-30T15:28:32.374Z,27.78
2023-06-30T15:30:07.379Z,27.68
2023-06-30T15:31:39.523Z,27.70
2023-06-30T15:33:11.210Z,27.77
2023-06-30T15:34:43.235Z,27.65
2023-06-30T15:36:14.801Z,27.67
2023-06-30T15:37:46.405Z,27.78
2023-06-30T15:39:18.049Z,27.67
2023-06-30T15:40:51.272Z,27.66
2023-06-30T15:42:24.738Z,27.84
2023-06-30T15:43:56.343Z,27.88
2023-06-30T15:45:27.918Z,27.90
2023-06-30T15:47:01.638Z,27.92
2023-06-30T15:48:33.372Z,28.10
2023-06-30T15:50:05.143Z,27.80
2023-06-30T15:51:36.860Z,27.91
2023-06-30T15:53:09.616Z,27.85
2023-06-30T15:54:41.203Z,27.91
2023-06-30T15:56:12.853Z,27.97
2023-06-30T15:57:44.611Z,27.91
2023-06-30T15:59:16.237Z,28.11
2023-06-30T16:00:47.910Z,28.18
2023-06-30T16:02:19.975Z,28.14
2023-06-30T16:03:51.654Z,28.35
2023-06-30T16:05:23.940Z,28.25
2023-06-30T16:06:56.957Z,28.28
2023-06-30T16:08:29.421Z,28.37
2023-06-30T16:10:01.229Z,28.27
2023-06-30T16:11:32.784Z,28.59
2023-06-30T16:13:07.829Z,28.55
2023-06-30T16:14:41.722Z,28.20
2023-06-30T16:16:13.414Z,28.16
2023-06-30T16:17:45.091Z,28.40
2023-06-30T16:19:16.816Z,28.68
2023-06-30T16:20:48.419Z,28.63
2023-06-30T16:22:20.116Z,28.17
2023-06-30T16:23:52.145Z,28.41
2023-06-30T16:25:23.874Z,28.34
2023-06-30T16:26:55.478Z,28.54
2023-06-30T16:28:27.098Z,28.45
2023-06-30T16:30:17.287Z,28.42
2023-06-30T16:31:48.881Z,28.68
2023-06-30T16:33:20.633Z,28.86
2023-06-30T16:34:52.374Z,28.88
2023-06-30T16:36:23.922Z,29.01
2023-06-30T16:37:56.328Z,28.86
2023-06-30T16:39:27.911Z,28.84
2023-06-30T16:40:59.534Z,29.07
2023-06-30T16:42:31.120Z,29.00
2023-06-30T16:44:03.384Z,28.98
2023-06-30T16:45:35.098Z,28.99
2023-06-30T16:47:06.797Z,28.61
2023-06-30T16:48:38.489Z,28.69
2023-06-30T16:50:10.330Z,29.02
2023-06-30T16:51:42.963Z,28.94
2023-06-30T16:53:14.581Z,28.92
2023-06-30T16:54:46.928Z,28.75
2023-06-30T16:56:18.537Z,28.56
2023-06-30T16:57:50.077Z,28.61
2023-06-30T16:59:21.606Z,28.62
2023-06-30T17:00:53.624Z,28.66
2023-06-30T17:02:25.293Z,28.75
2023-06-30T17:03:57.256Z,28.77
2023-06-30T17:05:28.865Z,28.81
2023-06-30T17:07:00.584Z,29.00
2023-06-30T17:08:32.476Z,29.14
2023-06-30T17:10:06.004Z,29.22
2023-06-30T17:11:37.999Z,29.42
2023-06-30T17:13:09.617Z,29.18
2023-06-30T17:14:42.997Z,29.17
2023-06-30T17:16:15.232Z,29.61
2023-06-30T17:17:46.885Z,29.45
2023-06-30T17:19:18.432Z,29.52
2023-06-30T17:20:50.146Z,29.90
2023-06-30T17:22:21.818Z,29.71
2023-06-30T17:23:53.627Z,29.74
2023-06-30T17:25:25.206Z,30.02
2023-06-30T17:26:57.028Z,30.21
2023-06-30T17:28:28.539Z,29.89
2023-06-30T17:30:00.071Z,29.94
2023-06-30T17:31:32.354Z,30.18
2023-06-30T17:33:04.397Z,30.06
2023-06-30T17:34:36.054Z,30.12
2023-06-30T17:36:09.913Z,29.98
2023-06-30T17:37:42.924Z,30.25
2023-06-30T17:39:14.921Z,30.35
2023-06-30T17:40:46.961Z,30.48
2023-06-30T17:42:18.876Z,30.70
2023-06-30T17:43:50.664Z,30.60
2023-06-30T17:45:22.416Z,30.35
2023-06-30T17:46:54.310Z,30.65
2023-06-30T17:48:25.948Z,30.72
2023-06-30T17:49:57.670Z,30.76
2023-06-30T17:51:29.261Z,30.71
2023-06-30T17:53:00.971Z,30.79
2023-06-30T17:54:32.537Z,30.75
2023-06-30T17:56:04.264Z,31.23
2023-06-30T17:57:36.003Z,31.33
2023-06-30T17:59:08.077Z,31.60
2023-06-30T18:00:39.693Z,31.67
2023-06-30T18:02:11.477Z,31.56
2023-06-30T18:03:43.319Z,31.88
2023-06-30T18:05:15.178Z,31.80
2023-06-30T18:07:05.210Z,31.90
2023-06-30T18:08:37.248Z,31.84
2023-06-30T18:10:12.067Z,32.10
2023-06-30T18:11:43.629Z,32.06
2023-06-30T18:13:15.248Z,32.06
2023-06-30T18:14:47.137Z,32.42
2023-06-30T18:16:20.947Z,32.33
2023-06-30T18:17:52.957Z,32.51
2023-06-30T18:19:24.694Z,32.42
2023-06-30T18:20:56.508Z,32.65
2023-06-30T18:22:28.162Z,32.69
2023-06-30T18:23:59.985Z,32.67
2023-06-30T18:25:31.545Z,32.82
2023-06-30T18:27:03.450Z,32.83
2023-06-30T18:28:35.297Z,32.89
2023-06-30T18:30:08.152Z,33.15
2023-06-30T18:31:39.918Z,33.16
2023-06-30T18:33:11.566Z,33.34
2023-06-30T18:34:45.783Z,33.38
2023-06-30T18:36:19.455Z,33.62
2023-06-30T18:37:51.250Z,33.67
2023-06-30T18:39:22.857Z,33.91
2023-06-30T18:40:54.778Z,33.92
2023-06-30T18:42:26.705Z,33.61
2023-06-30T18:43:58.772Z,33.94
2023-06-30T18:47:02.044Z,34.04
2023-06-30T18:48:33.692Z,33.90
2023-06-30T18:50:05.946Z,33.90
2023-06-30T18:51:37.831Z,34.24
2023-06-30T18:53:09.448Z,33.96
2023-06-30T18:54:41.856Z,34.37
2023-06-30T18:56:13.683Z,34.03
2023-06-30T18:57:45.291Z,34.06
2023-06-30T18:59:17.497Z,34.31
2023-06-30T19:00:49.565Z,34.44
2023-06-30T19:02:23.076Z,34.35
2023-06-30T19:03:55.699Z,34.79
2023-06-30T19:05:27.698Z,34.84
2023-06-30T19:06:59.752Z,34.93
2023-06-30T19:08:31.651Z,34.94
2023-06-30T19:10:03.869Z,34.87
2023-06-30T19:11:36.327Z,35.02
2023-06-30T19:13:10.852Z,34.85
2023-06-30T19:14:42.818Z,35.07
2023-06-30T19:16:14.904Z,34.75
2023-06-30T19:17:51.599Z,34.94
2023-06-30T19:19:24.952Z,34.71
2023-06-30T19:20:56.740Z,35.23
2023-06-30T19:22:28.369Z,35.16
2023-06-30T19:24:03.060Z,34.99
2023-06-30T19:25:37.415Z,34.91
2023-06-30T19:27:09.436Z,35.23
2023-06-30T19:28:44.778Z,35.25
2023-06-30T19:30:17.538Z,35.13
2023-06-30T19:31:51.544Z,35.22
2023-06-30T19:33:29.790Z,35.00
2023-06-30T19:35:10.730Z,35.36
2023-06-30T19:36:42.636Z,35.14
2023-06-30T19:38:14.512Z,35.51
2023-06-30T19:39:46.991Z,35.25
2023-06-30T19:41:21.286Z,35.15
2023-06-30T19:42:53.109Z,35.10
2023-06-30T19:44:25.314Z,35.35
2023-06-30T19:45:57.417Z,35.63
2023-06-30T19:47:29.461Z,35.40
2023-06-30T19:49:05.183Z,35.57
2023-06-30T19:51:08.024Z,35.57
2023-06-30T19:54:27.903Z,35.19
2023-06-30T19:56:02.609Z,35.74
2023-06-30T19:57:44.184Z,35.70
2023-06-30T19:59:23.388Z,35.35
2023-06-30T20:01:19.849Z,35.57
2023-06-30T20:05:21.896Z,35.91
2023-06-30T20:06:56.347Z,36.13